Time;durP1;ratioP1;P1;durP2;ratioP2;P2;SDS_P1;SDS_P2;PMS_P1;PMS_P2;Temp;Humidity;BMP_temperature;BMP_pressure;BME280_temperature;BME280_humidity;BME280_pressure;Samples;Min_cycle;Max_cycle;Signal;HPM_P1;HPM_P2
2021/10/17 02:45:40;;;;;;;24.23;12.57;;;5.30;96.30;;;;;;5593898;24;20148;-78
2021/10/17 02:48:06;;;;;;;17.58;9.98;;;5.20;96.10;;;;;;4798392;29;20340;-78
2021/10/17 02:50:33;;;;;;;22.50;11.20;;;5.20;96.10;;;;;;4784402;29;20215;-78
2021/10/17 02:53:00;;;;;;;21.17;12.68;;;5.20;96.00;;;;;;4778261;29;20036;-78
2021/10/17 02:55:27;;;;;;;26.63;12.10;;;5.20;96.40;;;;;;4778345;29;20227;-78
2021/10/17 02:57:53;;;;;;;21.80;11.82;;;5.10;96.10;;;;;;4778304;29;20020;-78
2021/10/17 03:00:20;;;;;;;25.17;11.35;;;5.10;96.00;;;;;;4784272;30;20028;-78
2021/10/17 03:02:50;;;;;;;19.75;10.65;;;5.10;95.90;;;;;;4796042;29;20051;-78
2021/10/17 03:05:17;;;;;;;19.45;11.38;;;5.10;95.90;;;;;;4787274;29;20031;-78
2021/10/17 03:07:43;;;;;;;23.02;12.85;;;5.10;95.90;;;;;;4793142;29;20039;-78
2021/10/17 03:10:09;;;;;;;22.93;12.27;;;5.10;95.90;;;;;;4787288;29;20031;-78
2021/10/17 03:12:36;;;;;;;19.17;11.47;;;5.10;96.00;;;;;;4783318;29;20324;-78
2021/10/17 03:15:06;;;;;;;22.25;11.30;;;5.10;96.00;;;;;;4797659;29;20062;-78
2021/10/17 03:17:35;;;;;;;21.33;12.07;;;5.10;96.10;;;;;;4799364;29;20038;-78
2021/10/17 03:20:02;;;;;;;21.05;11.57;;;5.00;96.00;;;;;;4788099;29;20380;-78
2021/10/17 03:22:34;;;;;;;22.65;11.30;;;5.00;96.00;;;;;;4785635;29;20035;-78
2021/10/17 03:25:00;;;;;;;22.55;11.80;;;5.00;96.10;;;;;;4782528;29;20081;-78
2021/10/17 03:27:28;;;;;;;17.52;10.88;;;5.00;96.00;;;;;;4787242;29;20043;-78
2021/10/17 03:29:55;;;;;;;22.83;12.27;;;5.00;96.00;;;;;;4781185;29;20035;-78
2021/10/17 03:32:21;;;;;;;25.03;12.73;;;5.00;96.00;;;;;;4785093;29;20039;-78
2021/10/17 03:34:48;;;;;;;19.50;11.80;;;5.00;96.00;;;;;;4786821;29;20058;-79
2021/10/17 03:37:15;;;;;;;27.10;12.02;;;4.90;96.20;;;;;;4788918;29;20057;-79
2021/10/17 03:39:41;;;;;;;30.75;12.13;;;4.90;96.10;;;;;;4796627;29;20035;-79
2021/10/17 03:42:07;;;;;;;30.77;12.65;;;4.90;96.20;;;;;;4792759;29;20024;-79
2021/10/17 03:44:33;;;;;;;21.33;11.50;;;4.90;96.20;;;;;;4786727;29;20326;-79
2021/10/17 03:46:59;;;;;;;24.70;12.82;;;4.90;96.10;;;;;;4775998;29;20044;-78
2021/10/17 03:49:27;;;;;;;21.08;11.88;;;4.80;96.10;;;;;;4780634;29;20055;-79
2021/10/17 03:51:53;;;;;;;25.30;11.88;;;4.90;96.20;;;;;;4780859;29;20038;-79
2021/10/17 03:54:19;;;;;;;24.90;12.48;;;4.80;96.20;;;;;;4766538;29;20078;-78
2021/10/17 03:56:45;;;;;;;22.97;12.13;;;4.80;96.10;;;;;;4763250;30;20040;-79
2021/10/17 03:59:15;;;;;;;19.30;11.80;;;4.80;96.20;;;;;;4762368;30;20315;-79
2021/10/17 04:01:42;;;;;;;20.10;10.60;;;4.80;96.10;;;;;;4778171;29;20058;-79
2021/10/17 04:04:09;;;;;;;21.08;11.98;;;4.80;96.00;;;;;;4780513;29;20031;-78
2021/10/17 04:06:36;;;;;;;22.13;12.27;;;4.80;96.00;;;;;;4774469;29;20071;-78
2021/10/17 04:09:07;;;;;;;18.25;12.30;;;4.80;96.10;;;;;;4766438;29;20033;-78
2021/10/17 04:11:35;;;;;;;19.30;11.80;;;4.80;96.20;;;;;;4764572;30;20040;-79
2021/10/17 04:14:01;;;;;;;23.90;11.73;;;4.70;96.20;;;;;;4766684;30;20031;-78
2021/10/17 04:16:27;;;;;;;21.10;12.33;;;4.70;96.00;;;;;;4763828;30;20028;-78
2021/10/17 04:18:53;;;;;;;24.95;13.32;;;4.70;96.10;;;;;;4780377;29;20024;-78
2021/10/17 04:21:19;;;;;;;25.58;12.70;;;4.70;96.00;;;;;;4774452;29;20028;-78
2021/10/17 04:23:45;;;;;;;23.15;12.90;;;4.70;96.00;;;;;;4773519;29;20049;-78
2021/10/17 04:26:10;;;;;;;24.67;13.15;;;4.60;96.00;;;;;;4777763;29;20036;-78
2021/10/17 04:28:43;;;;;;;19.52;11.15;;;4.60;96.20;;;;;;4774280;29;20223;-79
2021/10/17 04:31:08;;;;;;;18.98;12.23;;;4.60;96.10;;;;;;4776567;29;20036;-78
2021/10/17 04:33:34;;;;;;;24.50;12.02;;;4.60;96.20;;;;;;4783497;29;20042;-78
2021/10/17 04:36:01;;;;;;;19.60;13.18;;;4.60;96.10;;;;;;4774085;29;20028;-78
2021/10/17 04:38:27;;;;;;;19.48;11.98;;;4.60;96.20;;;;;;4762257;30;20060;-78
2021/10/17 04:40:53;;;;;;;22.92;12.52;;;4.50;96.20;;;;;;4776930;29;20023;-78
2021/10/17 04:43:19;;;;;;;22.10;11.57;;;4.50;96.20;;;;;;4765153;30;20050;-78
2021/10/17 04:45:46;;;;;;;22.10;11.10;;;4.50;96.20;;;;;;4763412;29;20048;-78
2021/10/17 04:48:12;;;;;;;21.08;11.48;;;4.50;96.00;;;;;;4761907;30;20032;-78
2021/10/17 04:50:38;;;;;;;22.20;12.02;;;4.50;96.10;;;;;;4779792;29;20027;-78
2021/10/17 04:53:04;;;;;;;21.40;11.95;;;4.50;95.90;;;;;;4770720;29;20071;-78
2021/10/17 04:55:30;;;;;;;24.02;13.07;;;4.50;95.90;;;;;;4779607;29;20087;-78
2021/10/17 04:57:57;;;;;;;22.20;12.73;;;4.40;96.00;;;;;;4788636;29;20197;-78
2021/10/17 05:00:25;;;;;;;19.48;12.80;;;4.40;96.20;;;;;;4794373;29;20032;-78
2021/10/17 05:02:57;;;;;;;22.00;12.70;;;4.40;96.40;;;;;;4782004;29;20224;-78
2021/10/17 05:05:23;;;;;;;27.25;13.85;;;4.40;96.40;;;;;;4779409;29;20032;-78
2021/10/17 05:07:50;;;;;;;25.20;13.90;;;4.40;96.40;;;;;;4778815;30;20246;-79
2021/10/17 05:10:16;;;;;;;26.83;12.80;;;4.40;96.40;;;;;;4777807;29;20519;-78
2021/10/17 05:12:42;;;;;;;19.98;11.15;;;4.40;96.40;;;;;;4779316;29;20065;-78
2021/10/17 05:15:08;;;;;;;30.53;12.87;;;4.30;96.40;;;;;;4764265;29;20040;-78
2021/10/17 05:17:35;;;;;;;33.28;14.88;;;4.40;96.30;;;;;;4772945;30;20055;-78
2021/10/17 05:20:00;;;;;;;31.00;17.73;;;4.30;96.20;;;;;;4779368;29;20227;-78
2021/10/17 05:22:27;;;;;;;29.92;15.23;;;4.30;96.40;;;;;;4770724;29;20036;-78
2021/10/17 05:24:53;;;;;;;30.33;17.40;;;4.30;97.00;;;;;;4770862;30;20046;-78
2021/10/17 05:27:20;;;;;;;28.87;15.87;;;4.40;97.60;;;;;;4759988;30;20032;-78
2021/10/17 05:29:46;;;;;;;28.33;16.23;;;4.40;97.70;;;;;;4768492;29;20280;-78
2021/10/17 05:32:11;;;;;;;35.33;17.23;;;4.50;97.80;;;;;;4767236;30;20023;-79
2021/10/17 05:34:37;;;;;;;31.55;17.05;;;4.50;97.90;;;;;;4764080;30;20069;-78
2021/10/17 05:37:03;;;;;;;32.50;17.00;;;4.60;97.90;;;;;;4763456;30;20051;-78
2021/10/17 05:39:30;;;;;;;33.92;19.60;;;4.50;98.10;;;;;;4766378;30;20031;-78
2021/10/17 05:41:56;;;;;;;32.40;19.95;;;4.60;98.10;;;;;;4778906;29;20104;-78
2021/10/17 05:44:22;;;;;;;33.92;19.38;;;4.70;98.30;;;;;;4779067;29;20039;-78
2021/10/17 05:46:48;;;;;;;31.90;18.17;;;4.70;98.30;;;;;;4774481;29;20114;-78
2021/10/17 05:49:14;;;;;;;44.80;21.20;;;4.80;98.30;;;;;;4754302;30;20077;-78
2021/10/17 05:51:40;;;;;;;40.33;20.83;;;4.80;98.30;;;;;;4758196;30;20059;-78
2021/10/17 05:54:07;;;;;;;38.72;18.17;;;4.80;98.30;;;;;;4755185;30;20054;-78
2021/10/17 05:56:33;;;;;;;36.85;19.92;;;4.80;98.00;;;;;;4770051;29;20071;-78
2021/10/17 05:59:00;;;;;;;52.90;26.17;;;4.90;97.90;;;;;;4771474;30;20028;-78
2021/10/17 06:01:26;;;;;;;35.80;18.73;;;4.90;97.80;;;;;;4770451;30;20024;-78
2021/10/17 06:04:12;;;;;;;40.75;21.65;;;4.90;97.80;;;;;;4773164;30;20027;-78
2021/10/17 06:06:54;;;;;;;38.95;19.23;;;4.90;97.80;;;;;;4767663;30;20032;-78
2021/10/17 06:09:20;;;;;;;34.65;18.08;;;5.00;97.90;;;;;;4771525;30;20057;-78
2021/10/17 06:11:48;;;;;;;31.88;17.98;;;5.00;98.10;;;;;;4772741;30;20023;-78
2021/10/17 06:14:14;;;;;;;42.08;23.15;;;5.10;98.60;;;;;;4771806;30;20031;-78
2021/10/17 06:16:40;;;;;;;43.05;24.25;;;5.20;98.40;;;;;;4772473;30;20028;-78
2021/10/17 06:19:07;;;;;;;32.80;18.13;;;5.30;98.50;;;;;;4769513;29;20048;-78
2021/10/17 06:21:44;;;;;;;34.03;17.73;;;5.30;98.50;;;;;;4757634;30;20262;-78
2021/10/17 06:24:11;;;;;;;32.83;18.50;;;5.40;98.40;;;;;;4759823;30;20116;-78
2021/10/17 06:26:37;;;;;;;35.30;20.45;;;5.40;98.30;;;;;;4771435;29;20325;-78
2021/10/17 06:29:03;;;;;;;41.88;21.10;;;5.60;98.50;;;;;;4769511;30;20110;-78
2021/10/17 06:31:29;;;;;;;42.20;22.30;;;5.70;98.40;;;;;;4753011;30;20043;-78
2021/10/17 06:33:57;;;;;;;40.13;20.48;;;5.80;98.80;;;;;;4775849;29;20257;-78
2021/10/17 06:36:24;;;;;;;34.08;19.85;;;5.90;98.90;;;;;;4767075;29;20104;-78
2021/10/17 06:38:50;;;;;;;38.45;20.67;;;6.00;98.90;;;;;;4767997;30;20032;-77
2021/10/17 06:41:16;;;;;;;32.80;18.35;;;6.10;99.00;;;;;;4779501;29;20031;-77
2021/10/17 06:43:42;;;;;;;36.42;18.67;;;6.30;99.50;;;;;;4770125;30;20063;-78
2021/10/17 06:46:18;;;;;;;38.65;20.27;;;6.40;99.30;;;;;;4767883;30;20058;-78
2021/10/17 06:48:45;;;;;;;33.20;19.10;;;6.50;99.40;;;;;;4771794;30;20039;-78
2021/10/17 06:51:12;;;;;;;33.95;17.88;;;6.60;99.40;;;;;;4777075;29;20039;-78
2021/10/17 06:53:38;;;;;;;38.97;21.23;;;6.70;99.00;;;;;;4774458;29;20040;-78
2021/10/17 06:56:04;;;;;;;38.20;20.95;;;6.90;98.60;;;;;;4773160;29;20323;-78
2021/10/17 06:58:30;;;;;;;37.83;20.50;;;6.90;98.70;;;;;;4770533;30;20042;-78
2021/10/17 07:00:57;;;;;;;38.13;21.55;;;7.00;98.90;;;;;;4786059;29;20032;-77
2021/10/17 07:03:23;;;;;;;39.15;20.63;;;7.10;98.60;;;;;;4772217;30;20108;-77
2021/10/17 07:06:24;;;;;;;41.30;20.15;;;7.20;98.90;;;;;;4776326;30;20355;-77
2021/10/17 07:09:06;;;;;;;39.58;21.13;;;7.40;98.80;;;;;;4754413;30;20082;-77
2021/10/17 07:11:40;;;;;;;35.60;18.50;;;7.50;98.70;;;;;;4762315;30;20059;-78
2021/10/17 07:14:08;;;;;;;47.58;19.85;;;7.60;98.50;;;;;;4754941;30;20039;-77
2021/10/17 07:16:46;;;;;;;31.73;18.38;;;7.70;98.00;;;;;;4763203;30;20192;-79
2021/10/17 07:19:13;;;;;;;34.92;18.40;;;7.70;97.70;;;;;;4759751;30;20289;-79
2021/10/17 07:21:39;;;;;;;31.63;20.42;;;7.80;97.80;;;;;;4756216;30;20039;-79
2021/10/17 07:24:04;;;;;;;37.08;19.67;;;7.80;97.60;;;;;;4765240;30;20035;-79
2021/10/17 07:26:30;;;;;;;37.05;21.13;;;7.80;97.60;;;;;;4759236;30;20043;-79
2021/10/17 07:28:56;;;;;;;41.58;19.95;;;7.90;97.90;;;;;;4772862;30;20331;-79
2021/10/17 07:31:22;;;;;;;35.78;19.58;;;8.10;97.80;;;;;;4747425;30;20100;-79
2021/10/17 07:34:05;;;;;;;33.13;19.85;;;8.10;97.60;;;;;;4755138;30;20040;-79
2021/10/17 07:36:30;;;;;;;35.15;19.40;;;8.20;97.80;;;;;;4748814;30;20035;-78
2021/10/17 07:39:04;;;;;;;29.83;18.23;;;8.30;97.90;;;;;;4762857;30;20412;-78
2021/10/17 07:41:33;;;;;;;37.55;19.50;;;8.50;98.00;;;;;;4748653;30;20036;-78
2021/10/17 07:44:06;;;;;;;33.40;18.98;;;8.50;97.60;;;;;;4777601;29;20170;-78
2021/10/17 07:46:36;;;;;;;29.52;18.00;;;8.70;97.40;;;;;;4783033;29;20048;-78
2021/10/17 07:49:06;;;;;;;35.60;20.67;;;8.70;97.30;;;;;;4779503;29;20223;-78
2021/10/17 07:51:32;;;;;;;31.17;18.92;;;8.90;97.30;;;;;;4779561;29;20024;-78
2021/10/17 07:54:04;;;;;;;33.25;18.52;;;9.00;97.20;;;;;;4779747;29;20054;-78
2021/10/17 07:56:35;;;;;;;37.45;20.58;;;9.10;96.60;;;;;;4774950;29;20112;-78
2021/10/17 07:59:01;;;;;;;41.67;18.17;;;9.20;96.80;;;;;;4773103;29;20103;-78
2021/10/17 08:01:30;;;;;;;33.92;18.10;;;9.20;96.50;;;;;;4779041;29;20028;-78
2021/10/17 08:04:14;;;;;;;36.38;18.05;;;9.30;96.20;;;;;;4780345;30;20027;-78
2021/10/17 08:07:17;;;;;;;37.63;18.48;;;9.50;96.00;;;;;;4781241;30;20036;-78
2021/10/17 08:09:45;;;;;;;34.05;18.67;;;9.60;95.50;;;;;;4778917;30;20046;-78
2021/10/17 08:12:11;;;;;;;32.42;18.27;;;9.70;95.50;;;;;;4779334;30;20059;-77
2021/10/17 08:14:37;;;;;;;40.33;18.42;;;9.70;95.00;;;;;;4764232;30;20362;-78
2021/10/17 08:17:05;;;;;;;36.30;17.33;;;9.80;95.00;;;;;;4763933;30;20089;-78
2021/10/17 08:19:51;;;;;;;32.03;18.13;;;9.90;94.50;;;;;;4766546;30;20043;-78
2021/10/17 08:22:21;;;;;;;34.22;17.50;;;10.10;94.40;;;;;;4778891;30;20048;-78
2021/10/17 08:24:47;;;;;;;29.40;18.10;;;10.20;94.20;;;;;;4779183;29;20035;-78
2021/10/17 08:27:14;;;;;;;31.27;17.13;;;10.40;94.00;;;;;;4778398;30;20023;-78
2021/10/17 08:29:41;;;;;;;;;;;10.50;93.30;;;;;;4772722;30;20036;-78
2021/10/17 08:32:07;;;;;;;30.20;16.67;;;10.60;92.50;;;;;;4785746;30;19922;-78
2021/10/17 08:34:40;;;;;;;26.27;16.45;;;10.60;92.50;;;;;;4792674;30;20040;-79
2021/10/17 08:37:11;;;;;;;29.73;16.73;;;10.80;93.00;;;;;;4778158;30;20035;-78
2021/10/17 08:40:03;;;;;;;33.25;17.90;;;11.10;92.70;;;;;;4766589;30;20690;-78
2021/10/17 08:42:49;;;;;;;32.58;16.85;;;11.30;92.20;;;;;;4773205;29;20031;-78
2021/10/17 08:45:24;;;;;;;28.13;15.90;;;11.50;91.90;;;;;;4772790;29;20039;-78
2021/10/17 08:47:50;;;;;;;30.63;17.77;;;11.60;91.50;;;;;;4774941;29;20040;-78
2021/10/17 08:50:16;;;;;;;26.02;16.15;;;11.70;91.50;;;;;;4778597;29;20031;-78
2021/10/17 08:52:44;;;;;;;29.95;16.58;;;11.80;90.40;;;;;;4777121;29;21066;-78
2021/10/17 08:55:12;;;;;;;28.17;15.48;;;11.90;90.10;;;;;;4766442;30;20067;-78
2021/10/17 08:57:39;;;;;;;28.98;16.30;;;11.90;90.20;;;;;;4770334;29;20032;-78
2021/10/17 09:00:25;;;;;;;33.85;15.55;;;12.10;89.10;;;;;;4772760;30;20027;-78
2021/10/17 09:02:52;;;;;;;34.20;16.60;;;12.20;88.20;;;;;;4771883;30;20043;-79
2021/10/17 09:05:18;;;;;;;28.00;15.30;;;12.30;88.60;;;;;;4769771;30;20077;-80
2021/10/17 09:07:53;;;;;;;28.13;14.88;;;12.40;87.50;;;;;;4762640;30;20332;-82
2021/10/17 09:10:22;;;;;;;24.80;14.25;;;12.50;87.00;;;;;;4772316;30;20079;-82
2021/10/17 09:12:50;;;;;;;31.92;15.40;;;12.70;87.20;;;;;;4768200;30;20050;-82
2021/10/17 09:15:30;;;;;;;30.48;15.35;;;12.90;86.50;;;;;;4761850;30;20039;-82
2021/10/17 09:18:14;;;;;;;48.17;15.65;;;13.00;86.40;;;;;;4771613;30;20071;-80
2021/10/17 09:20:46;;;;;;;25.77;15.20;;;13.20;85.70;;;;;;4757167;30;20036;-82
2021/10/17 09:23:14;;;;;;;29.50;14.43;;;13.30;83.80;;;;;;4788280;30;20203;-81
2021/10/17 09:25:39;;;;;;;;;;;13.40;82.10;;;;;;4758444;30;20441;-82
2021/10/17 09:28:20;;;;;;;29.88;14.57;;;13.40;81.00;;;;;;4774690;30;19913;-81
2021/10/17 09:31:06;;;;;;;26.02;14.30;;;13.50;82.50;;;;;;4787029;30;20035;-84
2021/10/17 09:33:35;;;;;;;34.95;15.65;;;13.70;81.40;;;;;;4769197;30;20309;-83
2021/10/17 09:36:15;;;;;;;30.25;14.93;;;13.90;80.10;;;;;;4776801;30;20040;-83
2021/10/17 09:39:13;;;;;;;25.30;13.55;;;14.00;78.30;;;;;;4774941;30;20056;-83
2021/10/17 09:42:02;;;;;;;30.35;14.68;;;14.10;79.10;;;;;;4764638;30;20032;-82
2021/10/17 09:44:37;;;;;;;27.00;13.75;;;14.20;79.80;;;;;;4771604;29;20066;-81
2021/10/17 09:47:03;;;;;;;22.25;12.82;;;14.30;78.80;;;;;;4768914;30;20156;-82
2021/10/17 09:49:30;;;;;;;24.67;13.52;;;14.40;77.30;;;;;;4775370;29;20028;-81
2021/10/17 09:52:23;;;;;;;28.80;14.07;;;14.60;77.50;;;;;;4774490;29;20125;-80
2021/10/17 09:55:06;;;;;;;29.90;13.68;;;14.70;75.80;;;;;;4754640;30;20031;-82
2021/10/17 09:57:31;;;;;;;27.40;14.32;;;14.70;75.80;;;;;;4777111;29;20027;-83
2021/10/17 09:59:57;;;;;;;20.95;13.27;;;14.70;75.80;;;;;;4769424;30;20051;-80
2021/10/17 10:02:24;;;;;;;33.20;14.50;;;14.80;76.10;;;;;;4774211;29;20447;-80
2021/10/17 10:04:51;;;;;;;29.73;15.88;;;15.00;74.40;;;;;;4769860;29;20036;-80
2021/10/17 10:07:24;;;;;;;34.53;15.80;;;15.00;72.90;;;;;;4770256;30;20270;-82
2021/10/17 10:09:53;;;;;;;28.83;14.45;;;15.10;73.90;;;;;;4775716;29;20510;-79
2021/10/17 10:12:19;;;;;;;23.33;13.57;;;15.20;75.50;;;;;;4752706;30;20020;-79
2021/10/17 10:14:46;;;;;;;;;;;15.40;74.30;;;;;;4775354;29;20040;-79
2021/10/17 10:17:14;;;;;;;37.50;13.63;;;15.60;71.70;;;;;;4772266;30;19916;-80
2021/10/17 10:19:40;;;;;;;23.70;13.60;;;15.50;72.00;;;;;;4770484;29;20032;-79
2021/10/17 10:22:06;;;;;;;27.95;14.27;;;15.70;72.20;;;;;;4775320;29;20040;-78
2021/10/17 10:24:32;;;;;;;29.85;15.98;;;15.80;71.70;;;;;;4773946;29;20319;-83
2021/10/17 10:26:59;;;;;;;28.92;15.32;;;15.70;71.50;;;;;;4766674;30;20036;-84
2021/10/17 10:29:28;;;;;;;29.60;15.50;;;15.70;71.90;;;;;;4769022;30;20040;-82
2021/10/17 10:31:59;;;;;;;25.38;13.52;;;15.80;71.00;;;;;;4772350;29;20047;-83
2021/10/17 10:34:25;;;;;;;22.80;13.20;;;15.80;71.30;;;;;;4774270;29;20082;-83
2021/10/17 10:36:55;;;;;;;25.98;13.48;;;15.90;70.80;;;;;;4772168;30;20269;-82
2021/10/17 10:39:32;;;;;;;32.70;13.27;;;16.00;69.70;;;;;;4772962;29;20115;-82
2021/10/17 10:42:15;;;;;;;24.70;13.80;;;16.00;68.40;;;;;;4777131;29;20058;-82
2021/10/17 10:44:41;;;;;;;26.85;13.10;;;16.10;69.80;;;;;;4771759;29;20042;-82
2021/10/17 10:47:25;;;;;;;24.13;12.75;;;16.00;69.00;;;;;;4774683;29;20191;-82
2021/10/17 10:49:53;;;;;;;26.25;12.70;;;16.00;69.10;;;;;;4771815;29;20044;-82
2021/10/17 10:52:24;;;;;;;29.17;13.52;;;16.00;70.00;;;;;;4768762;30;20354;-82
2021/10/17 10:54:55;;;;;;;26.50;12.32;;;16.20;68.90;;;;;;4775049;30;20100;-82
2021/10/17 10:57:24;;;;;;;21.63;11.57;;;16.20;68.40;;;;;;4772404;29;20040;-83
2021/10/17 11:00:07;;;;;;;27.98;11.18;;;16.20;68.80;;;;;;4774931;30;20034;-82
2021/10/17 11:02:33;;;;;;;22.15;12.30;;;16.30;68.10;;;;;;4767549;30;20048;-82
2021/10/17 11:05:16;;;;;;;25.23;12.17;;;16.30;68.80;;;;;;4768175;29;20055;-82
2021/10/17 11:07:44;;;;;;;23.27;12.18;;;16.40;67.40;;;;;;4754162;30;20335;-82
2021/10/17 11:10:22;;;;;;;28.08;13.13;;;16.50;67.70;;;;;;4760466;30;20377;-82
2021/10/17 11:12:48;;;;;;;25.08;12.48;;;16.60;68.10;;;;;;4784199;29;20063;-82
2021/10/17 11:15:17;;;;;;;26.40;12.73;;;16.70;68.30;;;;;;4752819;30;20024;-83
2021/10/17 11:17:54;;;;;;;23.20;13.68;;;16.80;66.80;;;;;;4774330;29;20039;-82
2021/10/17 11:20:22;;;;;;;20.33;12.65;;;16.90;66.60;;;;;;4767374;30;20024;-81
2021/10/17 11:22:49;;;;;;;23.65;12.23;;;17.00;66.50;;;;;;4775923;29;20039;-82
2021/10/17 11:25:18;;;;;;;26.55;13.20;;;17.00;66.30;;;;;;4776604;29;20090;-82
2021/10/17 11:27:45;;;;;;;26.15;12.98;;;16.80;66.50;;;;;;4776635;29;20055;-81
2021/10/17 11:30:25;;;;;;;23.27;12.90;;;16.80;66.60;;;;;;4775897;29;20036;-81
2021/10/17 11:32:52;;;;;;;25.45;12.98;;;16.90;66.50;;;;;;4766117;30;20056;-81
2021/10/17 11:35:29;;;;;;;23.45;13.57;;;16.90;66.50;;;;;;4763554;30;20030;-81
2021/10/17 11:37:56;;;;;;;24.85;12.77;;;17.00;66.90;;;;;;4773838;30;20127;-81
2021/10/17 11:40:26;;;;;;;23.77;13.05;;;17.00;66.40;;;;;;4776265;30;20271;-81
2021/10/17 11:42:58;;;;;;;24.60;13.98;;;17.00;66.40;;;;;;4777125;30;20055;-82
2021/10/17 11:45:32;;;;;;;25.65;13.68;;;17.00;65.70;;;;;;4771314;30;20043;-81
2021/10/17 11:48:00;;;;;;;20.60;13.05;;;17.00;66.20;;;;;;4773773;30;20335;-82
2021/10/17 11:50:31;;;;;;;24.80;12.88;;;17.00;66.20;;;;;;4773862;29;20073;-81
2021/10/17 11:53:03;;;;;;;19.30;11.48;;;17.10;66.20;;;;;;4763469;29;20251;-81
2021/10/17 11:55:47;;;;;;;27.98;11.98;;;17.10;66.20;;;;;;4783161;30;20043;-81
2021/10/17 11:58:17;;;;;;;21.13;11.85;;;17.20;65.30;;;;;;4781116;29;20032;-82
2021/10/17 12:00:46;;;;;;;27.52;12.35;;;17.10;64.20;;;;;;4794143;29;20040;-82
2021/10/17 12:03:12;;;;;;;20.77;12.25;;;17.00;65.00;;;;;;4768843;30;20031;-82
2021/10/17 12:05:44;;;;;;;23.52;12.45;;;16.90;66.10;;;;;;4783974;30;20331;-82
2021/10/17 12:08:37;;;;;;;21.95;11.50;;;17.00;66.40;;;;;;4765140;30;20043;-82
2021/10/17 12:11:05;;;;;;;21.52;11.65;;;17.10;66.10;;;;;;4763906;30;20040;-81
2021/10/17 12:13:53;;;;;;;19.58;11.70;;;17.20;65.50;;;;;;4758554;30;20049;-81
2021/10/17 12:16:22;;;;;;;21.42;11.15;;;17.20;65.70;;;;;;4763581;30;20048;-82
2021/10/17 12:18:53;;;;;;;24.63;11.85;;;17.20;65.60;;;;;;4750685;30;20059;-82
2021/10/17 12:21:22;;;;;;;19.98;10.40;;;17.20;64.50;;;;;;4756743;30;20362;-82
2021/10/17 12:23:49;;;;;;;20.63;11.23;;;17.10;65.60;;;;;;4762005;30;20048;-81
2021/10/17 12:26:31;;;;;;;26.38;11.45;;;17.20;65.00;;;;;;4780056;30;20447;-82
2021/10/17 12:29:02;;;;;;;15.13;10.13;;;17.30;65.60;;;;;;4748914;30;20085;-82
2021/10/17 12:31:33;;;;;;;19.50;9.95;;;17.40;65.40;;;;;;4752103;30;20133;-82
2021/10/17 12:34:00;;;;;;;21.40;10.60;;;17.50;65.50;;;;;;4760359;30;20080;-82
2021/10/17 12:36:26;;;;;;;;;;;17.50;63.40;;;;;;4766528;30;20028;-82
2021/10/17 12:39:03;;;;;;;25.33;11.47;;;17.40;63.50;;;;;;4772803;30;19917;-82
2021/10/17 12:41:30;;;;;;;18.00;9.55;;;17.40;64.10;;;;;;4755608;30;20279;-82
2021/10/17 12:44:14;;;;;;;15.85;9.02;;;17.30;64.90;;;;;;4758266;30;20058;-82
2021/10/17 12:46:40;;;;;;;19.02;8.65;;;17.40;64.10;;;;;;4774274;30;20071;-82
2021/10/17 12:49:18;;;;;;;22.77;9.10;;;17.40;64.30;;;;;;4778723;29;20031;-82
2021/10/17 12:51:49;;;;;;;17.08;9.00;;;17.40;63.60;;;;;;4771465;29;20224;-82
2021/10/17 12:54:28;;;;;;;22.02;9.82;;;17.40;63.80;;;;;;4761396;30;20414;-82
2021/10/17 12:56:57;;;;;;;25.25;10.73;;;17.30;64.00;;;;;;4761892;30;20355;-81
2021/10/17 12:59:30;;;;;;;25.30;9.15;;;17.30;64.30;;;;;;4777646;29;20219;-82
2021/10/17 13:02:15;;;;;;;20.88;9.45;;;17.40;64.40;;;;;;4772598;30;20034;-82
2021/10/17 13:04:59;;;;;;;21.60;8.80;;;17.40;63.90;;;;;;4776173;30;20070;-82
2021/10/17 13:07:25;;;;;;;18.10;9.55;;;17.50;64.30;;;;;;4776695;30;20031;-82
2021/10/17 13:09:59;;;;;;;15.90;8.85;;;17.50;63.90;;;;;;4774205;29;20047;-82
2021/10/17 13:12:27;;;;;;;14.70;8.25;;;17.50;64.80;;;;;;4776232;30;20249;-81
2021/10/17 13:15:16;;;;;;;16.40;9.13;;;17.50;64.30;;;;;;4776206;30;20155;-82
2021/10/17 13:17:51;;;;;;;20.05;8.80;;;17.50;65.10;;;;;;4773574;30;20035;-82
2021/10/17 13:20:29;;;;;;;16.55;8.65;;;17.50;62.80;;;;;;4785701;29;20399;-82
2021/10/17 13:22:58;;;;;;;20.52;9.15;;;17.50;64.30;;;;;;4772604;30;20227;-82
2021/10/17 13:25:25;;;;;;;17.67;9.18;;;17.30;63.50;;;;;;4773016;30;20034;-82
2021/10/17 13:27:53;;;;;;;17.30;8.85;;;17.30;64.50;;;;;;4773802;30;20061;-82
2021/10/17 13:30:20;;;;;;;26.65;9.45;;;17.20;65.00;;;;;;4775874;29;20332;-82
2021/10/17 13:32:47;;;;;;;17.55;9.00;;;17.20;64.90;;;;;;4773852;30;20115;-82
2021/10/17 13:35:17;;;;;;;21.10;9.63;;;17.20;65.40;;;;;;4776757;30;20627;-82
2021/10/17 13:37:44;;;;;;;17.88;8.82;;;17.10;65.80;;;;;;4775394;30;20281;-82
2021/10/17 13:40:11;;;;;;;21.05;9.55;;;17.10;65.30;;;;;;4777629;29;20280;-82
2021/10/17 13:42:38;;;;;;;20.02;8.80;;;17.10;65.50;;;;;;4765826;30;20036;-82
2021/10/17 13:45:06;;;;;;;22.50;8.98;;;17.00;65.70;;;;;;4767603;30;20405;-82
2021/10/17 13:47:31;;;;;;;20.40;10.32;;;16.90;65.40;;;;;;4766705;30;20055;-82
2021/10/17 13:49:57;;;;;;;19.67;9.23;;;16.90;65.70;;;;;;4771594;30;20032;-82
2021/10/17 13:52:23;;;;;;;17.75;8.68;;;16.90;66.50;;;;;;4770432;29;20241;-82
2021/10/17 13:54:49;;;;;;;17.30;8.82;;;17.00;65.40;;;;;;4778247;30;20036;-82
2021/10/17 13:57:15;;;;;;;16.98;8.57;;;16.90;66.00;;;;;;4782708;29;20024;-82
2021/10/17 13:59:40;;;;;;;18.13;8.95;;;16.90;65.70;;;;;;4774032;29;20022;-82
2021/10/17 14:02:06;;;;;;;20.85;8.05;;;16.80;66.00;;;;;;4776049;30;20035;-82
2021/10/17 14:04:32;;;;;;;16.67;8.90;;;16.70;66.20;;;;;;4769223;29;20176;-82
2021/10/17 14:06:58;;;;;;;16.45;8.57;;;16.60;66.40;;;;;;4774108;29;20054;-82
2021/10/17 14:09:24;;;;;;;20.03;8.73;;;16.60;66.90;;;;;;4776355;30;20035;-82
2021/10/17 14:11:50;;;;;;;14.57;7.93;;;16.50;67.10;;;;;;4777185;29;20322;-82
2021/10/17 14:14:17;;;;;;;17.20;8.05;;;16.60;67.40;;;;;;4777675;29;20112;-82
2021/10/17 14:16:43;;;;;;;20.17;8.27;;;16.60;67.00;;;;;;4777612;30;20032;-82
2021/10/17 14:19:09;;;;;;;14.02;6.85;;;16.60;67.10;;;;;;4767288;30;20257;-82
2021/10/17 14:21:35;;;;;;;14.35;7.70;;;16.60;66.40;;;;;;4778555;29;20058;-82
2021/10/17 14:24:02;;;;;;;17.15;8.07;;;16.60;66.40;;;;;;4768276;30;20031;-82
2021/10/17 14:26:28;;;;;;;15.20;7.07;;;16.50;66.60;;;;;;4765823;30;20091;-82
2021/10/17 14:28:54;;;;;;;13.93;7.00;;;16.50;66.90;;;;;;4768197;30;20039;-82
2021/10/17 14:31:20;;;;;;;15.95;6.43;;;16.40;66.50;;;;;;4778278;29;20043;-82
2021/10/17 14:33:46;;;;;;;11.77;6.43;;;16.40;66.50;;;;;;4772410;30;20055;-82
2021/10/17 14:36:12;;;;;;;20.00;7.07;;;16.40;66.50;;;;;;4765511;30;20034;-82
2021/10/17 14:38:39;;;;;;;15.80;8.13;;;16.40;66.20;;;;;;4783494;29;20355;-82
2021/10/17 14:41:06;;;;;;;;;;;16.30;66.40;;;;;;4760768;30;20044;-82
2021/10/17 14:43:32;;;;;;;15.52;7.30;;;16.30;66.80;;;;;;4766299;30;19918;-83
2021/10/17 14:45:57;;;;;;;13.45;6.43;;;16.10;67.20;;;;;;4756861;30;20252;-82
2021/10/17 14:48:23;;;;;;;13.35;7.25;;;16.10;67.40;;;;;;4761370;29;20058;-82
2021/10/17 14:50:50;;;;;;;11.98;6.32;;;16.10;67.80;;;;;;4774655;30;20319;-82
2021/10/17 14:53:16;;;;;;;12.63;5.97;;;16.10;67.60;;;;;;4785097;29;20067;-82
2021/10/17 14:55:42;;;;;;;17.67;6.25;;;16.10;67.30;;;;;;4762738;30;20039;-82
2021/10/17 14:58:08;;;;;;;14.93;6.43;;;16.00;67.20;;;;;;4773340;29;20027;-82
2021/10/17 15:00:34;;;;;;;13.93;6.13;;;16.00;67.40;;;;;;4770484;30;20106;-82
2021/10/17 15:03:00;;;;;;;11.65;5.13;;;15.90;67.90;;;;;;4784063;30;20036;-82
2021/10/17 15:05:29;;;;;;;12.27;6.20;;;15.90;68.00;;;;;;4774903;29;20046;-82
2021/10/17 15:07:55;;;;;;;12.73;5.60;;;15.90;67.40;;;;;;4779791;29;20273;-82
2021/10/17 15:10:21;;;;;;;12.87;5.83;;;15.80;68.00;;;;;;4775348;29;20235;-82
2021/10/17 15:12:48;;;;;;;11.75;6.22;;;15.70;67.70;;;;;;4795691;29;20297;-83
2021/10/17 15:15:14;;;;;;;14.27;6.18;;;15.70;68.10;;;;;;4766441;29;20107;-82
2021/10/17 15:17:40;;;;;;;13.40;6.00;;;15.70;67.80;;;;;;4765677;30;20024;-82
2021/10/17 15:20:08;;;;;;;15.13;6.78;;;15.60;67.90;;;;;;4784871;30;20352;-83
2021/10/17 15:22:35;;;;;;;10.27;5.93;;;15.50;68.50;;;;;;4773145;29;20113;-82
2021/10/17 15:25:01;;;;;;;;;;;15.40;68.90;;;;;;4769273;29;20103;-82
2021/10/17 15:27:27;;;;;;;11.60;5.40;;;15.30;69.20;;;;;;4771839;30;19917;-82
2021/10/17 15:29:59;;;;;;;13.90;5.80;;;15.20;69.70;;;;;;4765873;30;20307;-82
2021/10/17 15:32:26;;;;;;;15.95;6.68;;;15.20;70.20;;;;;;4767763;29;20031;-82